sensor_id;sensor_type;location;lat;lon;timestamp;pressure;altitude;pressure_sealevel;temperature;humidity
42945;BME280;28584;42.636;23.294;2023-03-01T00:01:49;93239.81;;;3.91;100.00
42945;BME280;28584;42.636;23.294;2023-03-01T00:04:14;94126.47;;;3.88;100.00
42945;BME280;28584;42.636;23.294;2023-03-01T00:06:42;95363.78;;;3.88;100.00
42945;BME280;28584;42.636;23.294;2023-03-01T00:09:08;96405.03;;;3.89;100.00
42945;BME280;28584;42.636;23.294;2023-03-01T00:11:33;97311.53;;;3.84;100.00
42945;BME280;28584;42.636;23.294;2023-03-01T00:14:02;98281.66;;;3.77;100.00
42945;BME280;28584;42.636;23.294;2023-03-01T00:16:35;99399.59;;;3.76;100.00
42945;BME280;28584;42.636;23.294;2023-03-01T00:19:02;100424.06;;;3.69;100.00
42945;BME280;28584;42.636;23.294;2023-03-01T00:21:27;101622.66;;;3.69;100.00
42945;BME280;28584;42.636;23.294;2023-03-01T00:23:53;102692.38;;;3.71;100.00
42945;BME280;28584;42.636;23.294;2023-03-01T00:26:20;103770.81;;;3.72;100.00
42945;BME280;28584;42.636;23.294;2023-03-01T00:28:46;104953.47;;;3.71;100.00
42945;BME280;28584;42.636;23.294;2023-03-01T00:31:18;105922.84;;;3.65;100.00
42945;BME280;28584;42.636;23.294;2023-03-01T00:33:44;106911.84;;;3.65;100.00
42945;BME280;28584;42.636;23.294;2023-03-01T00:36:11;107881.19;;;3.67;100.00
42945;BME280;28584;42.636;23.294;2023-03-01T00:38:38;108628.53;;;3.68;100.00
42945;BME280;28584;42.636;23.294;2023-03-01T00:41:11;109384.25;;;3.69;100.00
42945;BME280;28584;42.636;23.294;2023-03-01T00:43:37;110018.00;;;3.67;100.00
42945;BME280;28584;42.636;23.294;2023-03-01T00:46:11;110556.03;;;3.66;100.00
42945;BME280;28584;42.636;23.294;2023-03-01T00:48:37;111069.56;;;3.62;100.00
42945;BME280;28584;42.636;23.294;2023-03-01T00:51:12;111487.28;;;3.58;100.00
42945;BME280;28584;42.636;23.294;2023-03-01T00:53:39;111899.72;;;3.58;100.00
42945;BME280;28584;42.636;23.294;2023-03-01T00:56:06;112329.41;;;3.58;100.00
42945;BME280;28584;42.636;23.294;2023-03-01T00:58:32;112674.00;;;3.57;100.00
42945;BME280;28584;42.636;23.294;2023-03-01T01:00:58;113000.66;;;3.57;100.00
42945;BME280;28584;42.636;23.294;2023-03-01T01:03:24;113369.84;;;3.57;100.00
42945;BME280;28584;42.636;23.294;2023-03-01T01:05:53;113628.69;;;3.58;100.00
42945;BME280;28584;42.636;23.294;2023-03-01T01:08:19;113881.88;;;3.55;100.00
42945;BME280;28584;42.636;23.294;2023-03-01T01:10:45;114196.84;;;3.55;100.00
42945;BME280;28584;42.636;23.294;2023-03-01T01:13:11;114365.78;;;3.51;100.00
42945;BME280;28584;42.636;23.294;2023-03-01T01:15:36;114607.56;;;3.53;100.00
42945;BME280;28584;42.636;23.294;2023-03-01T01:18:02;114809.75;;;3.46;100.00
42945;BME280;28584;42.636;23.294;2023-03-01T01:20:28;115013.81;;;3.51;100.00
42945;BME280;28584;42.636;23.294;2023-03-01T01:22:53;115045.19;;;3.47;100.00
42945;BME280;28584;42.636;23.294;2023-03-01T01:25:19;115093.50;;;3.51;100.00
42945;BME280;28584;42.636;23.294;2023-03-01T01:27:44;115070.19;;;3.53;100.00
42945;BME280;28584;42.636;23.294;2023-03-01T01:30:10;115022.63;;;3.58;100.00
42945;BME280;28584;42.636;23.294;2023-03-01T01:32:36;114943.50;;;3.54;100.00
42945;BME280;28584;42.636;23.294;2023-03-01T01:35:01;114751.88;;;3.57;100.00
42945;BME280;28584;42.636;23.294;2023-03-01T01:37:27;114634.84;;;3.54;100.00
42945;BME280;28584;42.636;23.294;2023-03-01T01:39:57;114385.03;;;3.54;100.00
42945;BME280;28584;42.636;23.294;2023-03-01T01:42:24;114205.09;;;3.57;100.00
42945;BME280;28584;42.636;23.294;2023-03-01T01:45:42;113850.38;;;3.57;100.00
42945;BME280;28584;42.636;23.294;2023-03-01T01:48:04;113501.00;;;3.56;100.00
42945;BME280;28584;42.636;23.294;2023-03-01T01:50:33;113307.75;;;3.49;100.00
42945;BME280;28584;42.636;23.294;2023-03-01T01:53:06;112934.06;;;3.48;100.00
42945;BME280;28584;42.636;23.294;2023-03-01T01:55:36;112633.47;;;3.42;100.00
42945;BME280;28584;42.636;23.294;2023-03-01T01:58:04;112304.06;;;3.39;100.00
42945;BME280;28584;42.636;23.294;2023-03-01T02:00:30;112040.03;;;3.40;100.00
42945;BME280;28584;42.636;23.294;2023-03-01T02:03:00;111716.38;;;3.41;100.00
42945;BME280;28584;42.636;23.294;2023-03-01T02:08:38;110869.19;;;3.40;100.00
42945;BME280;28584;42.636;23.294;2023-03-01T02:11:05;110482.31;;;3.39;100.00
42945;BME280;28584;42.636;23.294;2023-03-01T02:13:32;109923.78;;;3.42;100.00
42945;BME280;28584;42.636;23.294;2023-03-01T02:15:58;109355.31;;;3.41;100.00
42945;BME280;28584;42.636;23.294;2023-03-01T02:18:24;108805.06;;;3.41;100.00
42945;BME280;28584;42.636;23.294;2023-03-01T02:21:19;107838.41;;;3.45;100.00
42945;BME280;28584;42.636;23.294;2023-03-01T02:23:49;107027.38;;;3.44;100.00
42945;BME280;28584;42.636;23.294;2023-03-01T02:26:19;106091.81;;;3.47;100.00
42945;BME280;28584;42.636;23.294;2023-03-01T02:28:46;105602.44;;;3.47;100.00
42945;BME280;28584;42.636;23.294;2023-03-01T02:31:16;104785.97;;;3.42;100.00
42945;BME280;28584;42.636;23.294;2023-03-01T02:34:02;104238.75;;;3.46;100.00
42945;BME280;28584;42.636;23.294;2023-03-01T02:36:36;103784.13;;;3.45;100.00
42945;BME280;28584;42.636;23.294;2023-03-01T02:39:05;103353.94;;;3.43;100.00
42945;BME280;28584;42.636;23.294;2023-03-01T02:41:35;103032.94;;;3.42;100.00
42945;BME280;28584;42.636;23.294;2023-03-01T02:44:01;102589.34;;;3.41;100.00
42945;BME280;28584;42.636;23.294;2023-03-01T02:46:27;102087.97;;;3.40;100.00
42945;BME280;28584;42.636;23.294;2023-03-01T02:48:55;101771.50;;;3.40;100.00
42945;BME280;28584;42.636;23.294;2023-03-01T02:54:24;101400.03;;;3.33;100.00
42945;BME280;28584;42.636;23.294;2023-03-01T02:56:51;101360.34;;;3.34;100.00
42945;BME280;28584;42.636;23.294;2023-03-01T02:59:20;101275.25;;;3.36;100.00
42945;BME280;28584;42.636;23.294;2023-03-01T03:01:46;101187.47;;;3.32;100.00
42945;BME280;28584;42.636;23.294;2023-03-01T03:04:16;101182.84;;;3.33;100.00
42945;BME280;28584;42.636;23.294;2023-03-01T03:06:45;101071.19;;;3.32;100.00
42945;BME280;28584;42.636;23.294;2023-03-01T03:09:12;101162.06;;;3.33;100.00
42945;BME280;28584;42.636;23.294;2023-03-01T03:11:37;101239.03;;;3.31;100.00
42945;BME280;28584;42.636;23.294;2023-03-01T03:14:04;101285.84;;;3.31;100.00
42945;BME280;28584;42.636;23.294;2023-03-01T03:16:30;101495.75;;;3.32;100.00
42945;BME280;28584;42.636;23.294;2023-03-01T03:18:55;101606.81;;;3.31;100.00
42945;BME280;28584;42.636;23.294;2023-03-01T03:21:33;101613.25;;;3.30;100.00
42945;BME280;28584;42.636;23.294;2023-03-01T03:23:59;101807.13;;;3.29;100.00
42945;BME280;28584;42.636;23.294;2023-03-01T03:26:24;101761.16;;;3.29;100.00
42945;BME280;28584;42.636;23.294;2023-03-01T03:28:50;101862.25;;;3.28;100.00
42945;BME280;28584;42.636;23.294;2023-03-01T03:31:15;102136.91;;;3.31;100.00
42945;BME280;28584;42.636;23.294;2023-03-01T03:33:41;102253.88;;;3.33;100.00
42945;BME280;28584;42.636;23.294;2023-03-01T03:36:07;102018.84;;;3.38;100.00
42945;BME280;28584;42.636;23.294;2023-03-01T03:38:38;101742.09;;;3.37;100.00
42945;BME280;28584;42.636;23.294;2023-03-01T03:41:06;101352.63;;;3.37;100.00
42945;BME280;28584;42.636;23.294;2023-03-01T03:43:34;101392.19;;;3.38;100.00
42945;BME280;28584;42.636;23.294;2023-03-01T03:46:00;100823.84;;;3.41;100.00
42945;BME280;28584;42.636;23.294;2023-03-01T03:48:26;100642.06;;;3.39;100.00
42945;BME280;28584;42.636;23.294;2023-03-01T03:50:54;100440.47;;;3.43;100.00
42945;BME280;28584;42.636;23.294;2023-03-01T03:53:21;100218.16;;;3.41;100.00
42945;BME280;28584;42.636;23.294;2023-03-01T03:55:47;100162.81;;;3.44;100.00
42945;BME280;28584;42.636;23.294;2023-03-01T03:58:17;100149.53;;;3.42;100.00
42945;BME280;28584;42.636;23.294;2023-03-01T04:00:45;100113.19;;;3.38;100.00
42945;BME280;28584;42.636;23.294;2023-03-01T04:03:12;100069.94;;;3.38;100.00
42945;BME280;28584;42.636;23.294;2023-03-01T04:05:39;100128.78;;;3.36;100.00
42945;BME280;28584;42.636;23.294;2023-03-01T04:08:05;100146.75;;;3.31;100.00
42945;BME280;28584;42.636;23.294;2023-03-01T04:10:36;100096.34;;;3.36;100.00
42945;BME280;28584;42.636;23.294;2023-03-01T04:13:04;99951.75;;;3.27;100.00
42945;BME280;28584;42.636;23.294;2023-03-01T04:15:30;100214.41;;;3.24;100.00
42945;BME280;28584;42.636;23.294;2023-03-01T04:17:56;100327.47;;;3.27;100.00
42945;BME280;28584;42.636;23.294;2023-03-01T04:20:24;100503.03;;;3.22;100.00
42945;BME280;28584;42.636;23.294;2023-03-01T04:25:38;101054.06;;;3.19;100.00
42945;BME280;28584;42.636;23.294;2023-03-01T04:28:03;101394.13;;;3.23;100.00
42945;BME280;28584;42.636;23.294;2023-03-01T04:30:29;101510.22;;;3.25;100.00
42945;BME280;28584;42.636;23.294;2023-03-01T04:32:54;101827.44;;;3.25;100.00
42945;BME280;28584;42.636;23.294;2023-03-01T04:35:19;102175.63;;;3.23;100.00
42945;BME280;28584;42.636;23.294;2023-03-01T04:37:45;102309.88;;;3.24;100.00
42945;BME280;28584;42.636;23.294;2023-03-01T04:40:11;102481.97;;;3.25;100.00
42945;BME280;28584;42.636;23.294;2023-03-01T04:42:41;102900.16;;;3.18;100.00
42945;BME280;28584;42.636;23.294;2023-03-01T04:45:07;102991.97;;;3.20;100.00
42945;BME280;28584;42.636;23.294;2023-03-01T04:47:42;103173.22;;;3.20;100.00
42945;BME280;28584;42.636;23.294;2023-03-01T04:50:12;103435.75;;;3.18;100.00
42945;BME280;28584;42.636;23.294;2023-03-01T04:52:38;103535.13;;;3.16;100.00
42945;BME280;28584;42.636;23.294;2023-03-01T04:55:04;103891.25;;;3.17;100.00
42945;BME280;28584;42.636;23.294;2023-03-01T04:57:31;103966.16;;;3.17;100.00
42945;BME280;28584;42.636;23.294;2023-03-01T04:59:56;104145.84;;;3.14;100.00
42945;BME280;28584;42.636;23.294;2023-03-01T05:02:21;104241.50;;;3.13;100.00
42945;BME280;28584;42.636;23.294;2023-03-01T05:04:47;104374.09;;;3.13;100.00
42945;BME280;28584;42.636;23.294;2023-03-01T05:07:12;104609.63;;;3.12;100.00
42945;BME280;28584;42.636;23.294;2023-03-01T05:09:47;104829.56;;;3.14;100.00
42945;BME280;28584;42.636;23.294;2023-03-01T05:12:13;104903.50;;;3.14;100.00
42945;BME280;28584;42.636;23.294;2023-03-01T05:14:38;104792.56;;;3.14;100.00
42945;BME280;28584;42.636;23.294;2023-03-01T05:17:04;104778.03;;;3.15;100.00
42945;BME280;28584;42.636;23.294;2023-03-01T05:19:30;104545.09;;;3.18;100.00
42945;BME280;28584;42.636;23.294;2023-03-01T05:21:57;104336.38;;;3.23;100.00
42945;BME280;28584;42.636;23.294;2023-03-01T05:24:33;103756.84;;;3.27;100.00
42945;BME280;28584;42.636;23.294;2023-03-01T05:27:00;103541.84;;;3.31;100.00
42945;BME280;28584;42.636;23.294;2023-03-01T05:29:28;102899.63;;;3.40;100.00
42945;BME280;28584;42.636;23.294;2023-03-01T05:31:55;102535.22;;;3.41;100.00
42945;BME280;28584;42.636;23.294;2023-03-01T05:34:29;101745.56;;;3.46;100.00
42945;BME280;28584;42.636;23.294;2023-03-01T05:36:55;101284.03;;;3.45;100.00
42945;BME280;28584;42.636;23.294;2023-03-01T05:39:21;100819.25;;;3.48;100.00
42945;BME280;28584;42.636;23.294;2023-03-01T05:41:57;100276.31;;;3.50;100.00
42945;BME280;28584;42.636;23.294;2023-03-01T05:44:24;99877.28;;;3.54;100.00
42945;BME280;28584;42.636;23.294;2023-03-01T05:46:49;99319.78;;;3.57;100.00
42945;BME280;28584;42.636;23.294;2023-03-01T05:49:15;98392.50;;;3.62;100.00
42945;BME280;28584;42.636;23.294;2023-03-01T05:51:42;97373.44;;;3.67;100.00
42945;BME280;28584;42.636;23.294;2023-03-01T05:54:11;96226.09;;;3.75;100.00
42945;BME280;28584;42.636;23.294;2023-03-01T05:56:36;95526.38;;;3.90;100.00
42945;BME280;28584;42.636;23.294;2023-03-01T05:59:03;94225.50;;;4.21;100.00
42945;BME280;28584;42.636;23.294;2023-03-01T06:01:33;97061.50;;;4.39;100.00
42945;BME280;28584;42.636;23.294;2023-03-01T06:03:59;105125.41;;;4.53;100.00
42945;BME280;28584;42.636;23.294;2023-03-01T06:06:25;121348.16;;;4.65;100.00
42945;BME280;28584;42.636;23.294;2023-03-01T06:08:51;146934.66;;;4.70;100.00
42945;BME280;28584;42.636;23.294;2023-03-01T06:11:17;159831.09;;;4.79;100.00
42945;BME280;28584;42.636;23.294;2023-03-01T06:13:43;159851.06;;;4.87;100.00
42945;BME280;28584;42.636;23.294;2023-03-01T06:16:09;159855.03;;;4.88;100.00
42945;BME280;28584;42.636;23.294;2023-03-01T06:18:36;159872.31;;;4.95;100.00
42945;BME280;28584;42.636;23.294;2023-03-01T06:21:02;159873.66;;;4.95;100.00
42945;BME280;28584;42.636;23.294;2023-03-01T06:23:28;159912.25;;;5.10;100.00
42945;BME280;28584;42.636;23.294;2023-03-01T06:25:53;159897.63;;;5.04;100.00
42945;BME280;28584;42.636;23.294;2023-03-01T06:28:19;159876.31;;;4.96;100.00
42945;BME280;28584;42.636;23.294;2023-03-01T06:30:44;159843.06;;;4.84;100.00
42945;BME280;28584;42.636;23.294;2023-03-01T06:33:10;159811.19;;;4.72;100.00
42945;BME280;28584;42.636;23.294;2023-03-01T06:35:35;159800.50;;;4.68;100.00
42945;BME280;28584;42.636;23.294;2023-03-01T06:38:03;159815.19;;;4.73;100.00
42945;BME280;28584;42.636;23.294;2023-03-01T06:40:29;159831.09;;;4.79;100.00
42945;BME280;28584;42.636;23.294;2023-03-01T06:42:56;159836.44;;;4.81;100.00
42945;BME280;28584;42.636;23.294;2023-03-01T06:45:22;159849.72;;;4.86;100.00
42945;BME280;28584;42.636;23.294;2023-03-01T06:47:47;159860.34;;;4.90;100.00
42945;BME280;28584;42.636;23.294;2023-03-01T06:50:14;159884.28;;;4.99;100.00
42945;BME280;28584;42.636;23.294;2023-03-01T06:52:40;159884.28;;;4.99;100.00
42945;BME280;28584;42.636;23.294;2023-03-01T06:55:06;159812.47;;;4.72;100.00
42945;BME280;28584;42.636;23.294;2023-03-01T06:57:32;159779.25;;;4.60;100.00
42945;BME280;28584;42.636;23.294;2023-03-01T06:59:58;159772.59;;;4.57;100.00
42945;BME280;28584;42.636;23.294;2023-03-01T07:02:23;159768.63;;;4.56;100.00
42945;BME280;28584;42.636;23.294;2023-03-01T07:04:50;159767.25;;;4.55;100.00
42945;BME280;28584;42.636;23.294;2023-03-01T07:07:16;159763.28;;;4.54;100.00
42945;BME280;28584;42.636;23.294;2023-03-01T07:09:43;159767.25;;;4.55;100.00
42945;BME280;28584;42.636;23.294;2023-03-01T07:12:09;159781.88;;;4.61;100.00
42945;BME280;28584;42.636;23.294;2023-03-01T07:14:37;159785.88;;;4.62;100.00
42945;BME280;28584;42.636;23.294;2023-03-01T07:17:02;159821.81;;;4.76;100.00
42945;BME280;28584;42.636;23.294;2023-03-01T07:19:28;159799.19;;;4.67;100.00
42945;BME280;28584;42.636;23.294;2023-03-01T07:21:53;159820.47;;;4.75;100.00
42945;BME280;28584;42.636;23.294;2023-03-01T07:24:20;159820.47;;;4.75;100.00
42945;BME280;28584;42.636;23.294;2023-03-01T07:26:51;159849.72;;;4.86;100.00
42945;BME280;28584;42.636;23.294;2023-03-01T07:29:17;159897.63;;;5.04;100.00
42945;BME280;28584;42.636;23.294;2023-03-01T07:31:43;159900.28;;;5.05;100.00
42945;BME280;28584;42.636;23.294;2023-03-01T07:34:08;159920.25;;;5.13;100.00
42945;BME280;28584;42.636;23.294;2023-03-01T07:36:34;159970.75;;;5.32;100.00
42945;BME280;28584;42.636;23.294;2023-03-01T07:38:59;160022.66;;;5.51;100.00
42945;BME280;28584;42.636;23.294;2023-03-01T07:41:27;160030.63;;;5.54;100.00
42945;BME280;28584;42.636;23.294;2023-03-01T07:43:53;159994.72;;;5.41;100.00
42945;BME280;28584;42.636;23.294;2023-03-01T07:46:18;159980.09;;;5.35;100.00
42945;BME280;28584;42.636;23.294;2023-03-01T07:48:44;159993.38;;;5.40;100.00
42945;BME280;28584;42.636;23.294;2023-03-01T07:51:10;160047.91;;;5.61;100.00
42945;BME280;28584;42.636;23.294;2023-03-01T07:53:35;160043.91;;;5.59;100.00
42945;BME280;28584;42.636;23.294;2023-03-01T07:56:09;160013.34;;;5.48;100.00
42945;BME280;28584;42.636;23.294;2023-03-01T07:58:35;160081.19;;;5.73;100.00
42945;BME280;28584;42.636;23.294;2023-03-01T08:01:06;160118.53;;;5.88;100.00
42945;BME280;28584;42.636;23.294;2023-03-01T08:03:32;160154.47;;;6.01;100.00
42945;BME280;28584;42.636;23.294;2023-03-01T08:06:06;160133.19;;;5.93;100.00
42945;BME280;28584;42.636;23.294;2023-03-01T08:08:32;160094.50;;;5.78;100.00
42945;BME280;28584;42.636;23.294;2023-03-01T08:10:59;160163.75;;;6.05;100.00
42945;BME280;28584;42.636;23.294;2023-03-01T08:13:26;160179.75;;;6.11;100.00
42945;BME280;28584;42.636;23.294;2023-03-01T08:15:51;160190.38;;;6.15;100.00
42945;BME280;28584;42.636;23.294;2023-03-01T08:18:18;160127.84;;;5.91;100.00
42945;BME280;28584;42.636;23.294;2023-03-01T08:20:44;160169.09;;;6.07;100.00
42945;BME280;28584;42.636;23.294;2023-03-01T08:23:10;160146.47;;;5.98;100.00
42945;BME280;28584;42.636;23.294;2023-03-01T08:25:35;160098.50;;;5.80;100.00
42945;BME280;28584;42.636;23.294;2023-03-01T08:28:00;160093.16;;;5.78;100.00
42945;BME280;28584;42.636;23.294;2023-03-01T08:30:26;160110.56;;;5.85;100.00
42945;BME280;28584;42.636;23.294;2023-03-01T08:32:52;160142.47;;;5.97;100.00
42945;BME280;28584;42.636;23.294;2023-03-01T08:35:19;160103.84;;;5.82;100.00
42945;BME280;28584;42.636;23.294;2023-03-01T08:37:44;160130.47;;;5.92;100.00
42945;BME280;28584;42.636;23.294;2023-03-01T08:40:10;160123.84;;;5.90;100.00
42945;BME280;28584;42.636;23.294;2023-03-01T08:42:36;160195.72;;;6.17;100.00
42945;BME280;28584;42.636;23.294;2023-03-01T08:45:03;160171.75;;;6.08;100.00
42945;BME280;28584;42.636;23.294;2023-03-01T08:47:28;160201.03;;;6.19;100.00
42945;BME280;28584;42.636;23.294;2023-03-01T08:49:54;160223.66;;;6.27;100.00
42945;BME280;28584;42.636;23.294;2023-03-01T08:52:20;160291.56;;;6.53;100.00
42945;BME280;28584;42.636;23.294;2023-03-01T08:54:48;160443.44;;;7.10;100.00
42945;BME280;28584;42.636;23.294;2023-03-01T08:57:14;160498.06;;;7.30;100.00
42945;BME280;28584;42.636;23.294;2023-03-01T08:59:39;160454.09;;;7.14;100.00
42945;BME280;28584;42.636;23.294;2023-03-01T09:02:11;160470.09;;;7.20;100.00
42945;BME280;28584;42.636;23.294;2023-03-01T09:04:37;160435.44;;;7.07;100.00
42945;BME280;28584;42.636;23.294;2023-03-01T09:07:03;160406.16;;;6.96;100.00
42945;BME280;28584;42.636;23.294;2023-03-01T09:09:28;160428.78;;;7.04;100.00
42945;BME280;28584;42.636;23.294;2023-03-01T09:11:53;160432.78;;;7.06;100.00
42945;BME280;28584;42.636;23.294;2023-03-01T09:14:19;160480.75;;;7.24;100.00
42945;BME280;28584;42.636;23.294;2023-03-01T09:16:44;160460.75;;;7.16;100.00
42945;BME280;28584;42.636;23.294;2023-03-01T09:19:10;160458.09;;;7.15;100.00
42945;BME280;28584;42.636;23.294;2023-03-01T09:21:37;160483.41;;;7.25;100.00
42945;BME280;28584;42.636;23.294;2023-03-01T09:24:02;160430.09;;;7.05;100.00
42945;BME280;28584;42.636;23.294;2023-03-01T09:26:28;160372.84;;;6.83;100.00
42945;BME280;28584;42.636;23.294;2023-03-01T09:28:55;160387.50;;;6.89;100.00
42945;BME280;28584;42.636;23.294;2023-03-01T09:31:22;160382.16;;;6.87;100.00
42945;BME280;28584;42.636;23.294;2023-03-01T09:33:50;160430.09;;;7.05;100.00
42945;BME280;28584;42.636;23.294;2023-03-01T09:36:20;160459.44;;;7.16;100.00
42945;BME280;28584;42.636;23.294;2023-03-01T09:38:47;160464.75;;;7.18;100.00
42945;BME280;28584;42.636;23.294;2023-03-01T09:43:56;160451.44;;;7.13;100.00
42945;BME280;28584;42.636;23.294;2023-03-01T09:46:24;160370.16;;;6.82;100.00
42945;BME280;28584;42.636;23.294;2023-03-01T09:48:55;160392.78;;;6.91;100.00
42945;BME280;28584;42.636;23.294;2023-03-01T09:51:33;160558.03;;;7.53;100.00
42945;BME280;28584;42.636;23.294;2023-03-01T09:54:04;160555.38;;;7.52;100.00
42945;BME280;28584;42.636;23.294;2023-03-01T09:56:41;160440.78;;;7.09;100.00
42945;BME280;28584;42.636;23.294;2023-03-01T10:02:05;160534.06;;;7.44;100.00
42945;BME280;28584;42.636;23.294;2023-03-01T10:04:47;160502.06;;;7.32;100.00
42945;BME280;28584;42.636;23.294;2023-03-01T10:07:34;160526.06;;;7.41;100.00
42945;BME280;28584;42.636;23.294;2023-03-01T10:10:06;160582.03;;;7.62;100.00
42945;BME280;28584;42.636;23.294;2023-03-01T10:12:39;160536.72;;;7.45;100.00
42945;BME280;28584;42.636;23.294;2023-03-01T10:15:16;160548.72;;;7.49;100.00
42945;BME280;28584;42.636;23.294;2023-03-01T10:20:28;160512.72;;;7.36;100.00
42945;BME280;28584;42.636;23.294;2023-03-01T10:22:55;160366.16;;;6.81;100.00
42945;BME280;28584;42.636;23.294;2023-03-01T10:25:44;160470.09;;;7.20;100.00
42945;BME280;28584;42.636;23.294;2023-03-01T10:31:02;160552.72;;;7.51;100.00
42945;BME280;28584;42.636;23.294;2023-03-01T10:33:32;160510.06;;;7.35;100.00
42945;BME280;28584;42.636;23.294;2023-03-01T10:36:00;160547.38;;;7.49;100.00
42945;BME280;28584;42.636;23.294;2023-03-01T10:38:30;160523.34;;;7.40;100.00
42945;BME280;28584;42.636;23.294;2023-03-01T10:41:04;160552.72;;;7.51;100.00
42945;BME280;28584;42.636;23.294;2023-03-01T10:51:32;160412.78;;;6.98;100.00
42945;BME280;28584;42.636;23.294;2023-03-01T10:53:58;160487.41;;;7.26;100.00
42945;BME280;28584;42.636;23.294;2023-03-01T10:56:23;160559.38;;;7.53;100.00
42945;BME280;28584;42.636;23.294;2023-03-01T10:59:00;160506.06;;;7.33;100.00
42945;BME280;28584;42.636;23.294;2023-03-01T11:01:33;160536.72;;;7.45;100.00
42945;BME280;28584;42.636;23.294;2023-03-01T11:06:32;160516.69;;;7.37;100.00
42945;BME280;28584;42.636;23.294;2023-03-01T11:09:13;160523.34;;;7.40;100.00
42945;BME280;28584;42.636;23.294;2023-03-01T11:11:39;160424.78;;;7.03;100.00
42945;BME280;28584;42.636;23.294;2023-03-01T11:16:41;160322.22;;;6.64;100.00
42945;BME280;28584;42.636;23.294;2023-03-01T11:21:36;160307.56;;;6.59;100.00
42945;BME280;28584;42.636;23.294;2023-03-01T11:24:04;160327.56;;;6.66;100.00
42945;BME280;28584;42.636;23.294;2023-03-01T11:26:37;160334.22;;;6.69;100.00
42945;BME280;28584;42.636;23.294;2023-03-01T11:29:11;160339.56;;;6.71;100.00
42945;BME280;28584;42.636;23.294;2023-03-01T11:31:39;160310.22;;;6.60;100.00
42945;BME280;28584;42.636;23.294;2023-03-01T11:34:20;160291.56;;;6.53;100.00
42945;BME280;28584;42.636;23.294;2023-03-01T11:36:54;160250.28;;;6.37;100.00
42945;BME280;28584;42.636;23.294;2023-03-01T11:45:42;160262.28;;;6.42;100.00
42945;BME280;28584;42.636;23.294;2023-03-01T11:50:57;160195.72;;;6.17;100.00
42945;BME280;28584;42.636;23.294;2023-03-01T11:53:54;160226.34;;;6.28;100.00
42945;BME280;28584;42.636;23.294;2023-03-01T11:56:34;160275.63;;;6.47;100.00
42945;BME280;28584;42.636;23.294;2023-03-01T11:59:50;160250.28;;;6.37;100.00
42945;BME280;28584;42.636;23.294;2023-03-01T12:15:44;160430.09;;;7.05;100.00
42945;BME280;28584;42.636;23.294;2023-03-01T12:18:13;160407.44;;;6.96;100.00
42945;BME280;28584;42.636;23.294;2023-03-01T12:21:02;160410.16;;;6.97;100.00
42945;BME280;28584;42.636;23.294;2023-03-01T12:42:33;160571.38;;;7.58;100.00
42945;BME280;28584;42.636;23.294;2023-03-01T12:48:03;160578.03;;;7.60;100.00
42945;BME280;28584;42.636;23.294;2023-03-01T12:50:45;160648.66;;;7.87;100.00
42945;BME280;28584;42.636;23.294;2023-03-01T12:53:34;160654.03;;;7.89;100.00
42945;BME280;28584;42.636;23.294;2023-03-01T12:56:09;160656.66;;;7.90;100.00
42945;BME280;28584;42.636;23.294;2023-03-01T13:07:30;160694.00;;;8.04;100.00
42945;BME280;28584;42.636;23.294;2023-03-01T13:10:12;160654.03;;;7.89;100.00
42945;BME280;28584;42.636;23.294;2023-03-01T13:15:29;160768.72;;;8.32;100.00
42945;BME280;28584;42.636;23.294;2023-03-01T13:17:57;160696.66;;;8.05;100.00
42945;BME280;28584;42.636;23.294;2023-03-01T13:28:55;160622.00;;;7.77;100.00
42945;BME280;28584;42.636;23.294;2023-03-01T13:33:51;160576.69;;;7.60;100.00
42945;BME280;28584;42.636;23.294;2023-03-01T13:38:55;160552.72;;;7.51;100.00
42945;BME280;28584;42.636;23.294;2023-03-01T13:49:42;160454.09;;;7.14;100.00
42945;BME280;28584;42.636;23.294;2023-03-01T13:54:59;160388.78;;;6.89;100.00
42945;BME280;28584;42.636;23.294;2023-03-01T13:57:37;160387.50;;;6.89;100.00
42945;BME280;28584;42.636;23.294;2023-03-01T14:00:05;160455.44;;;7.14;100.00
42945;BME280;28584;42.636;23.294;2023-03-01T14:02:31;160486.03;;;7.26;100.00
42945;BME280;28584;42.636;23.294;2023-03-01T14:04:59;160543.34;;;7.47;100.00
42945;BME280;28584;42.636;23.294;2023-03-01T14:07:25;160612.69;;;7.73;100.00
42945;BME280;28584;42.636;23.294;2023-03-01T14:09:57;160536.72;;;7.45;100.00
42945;BME280;28584;42.636;23.294;2023-03-01T14:13:19;160515.41;;;7.37;100.00
42945;BME280;28584;42.636;23.294;2023-03-01T14:15:29;160496.75;;;7.30;100.00
42945;BME280;28584;42.636;23.294;2023-03-01T14:18:13;160484.75;;;7.25;100.00
42945;BME280;28584;42.636;23.294;2023-03-01T14:20:44;160435.44;;;7.07;100.00
42945;BME280;28584;42.636;23.294;2023-03-01T14:23:21;160406.16;;;6.96;100.00
42945;BME280;28584;42.636;23.294;2023-03-01T14:25:50;160387.50;;;6.89;100.00
42945;BME280;28584;42.636;23.294;2023-03-01T14:28:23;160412.78;;;6.98;100.00
42945;BME280;28584;42.636;23.294;2023-03-01T14:30:54;160422.09;;;7.02;100.00
42945;BME280;28584;42.636;23.294;2023-03-01T14:33:26;160379.50;;;6.86;100.00
42945;BME280;28584;42.636;23.294;2023-03-01T14:38:23;160280.94;;;6.49;100.00
42945;BME280;28584;42.636;23.294;2023-03-01T14:40:57;160241.00;;;6.34;100.00
42945;BME280;28584;42.636;23.294;2023-03-01T14:43:24;160233.00;;;6.31;100.00
42945;BME280;28584;42.636;23.294;2023-03-01T14:45:51;160219.72;;;6.26;100.00
42945;BME280;28584;42.636;23.294;2023-03-01T14:48:18;160197.06;;;6.17;100.00